createdAt,value
2022-09-04T00:03:43.026Z,66.37
2022-09-04T00:08:57.620Z,65.92
2022-09-04T00:14:03.665Z,66.30
2022-09-04T00:19:15.069Z,66.30
2022-09-04T00:24:20.335Z,66.11
2022-09-04T00:29:30.842Z,66.40
2022-09-04T00:34:55.018Z,66.50
2022-09-04T00:40:02.456Z,66.39
2022-09-04T00:45:16.906Z,66.66
2022-09-04T00:50:40.221Z,66.56
2022-09-04T00:55:56.724Z,66.80
2022-09-04T01:01:01.251Z,66.94
2022-09-04T01:06:32.849Z,66.84
2022-09-04T01:11:43.168Z,67.17
2022-09-04T01:16:51.966Z,67.49
2022-09-04T01:22:25.060Z,66.94
2022-09-04T01:27:33.710Z,67.08
2022-09-04T01:32:57.909Z,67.07
2022-09-04T01:38:09.106Z,67.27
2022-09-04T01:43:17.504Z,67.37
2022-09-04T01:48:28.634Z,67.45
2022-09-04T01:53:36.310Z,67.29
2022-09-04T01:58:47.543Z,67.33
2022-09-04T02:03:58.170Z,67.30
2022-09-04T02:09:19.346Z,67.22
2022-09-04T02:14:35.413Z,67.09
2022-09-04T02:19:51.968Z,67.19
2022-09-04T02:25:05.332Z,67.54
2022-09-04T02:30:13.641Z,67.45
2022-09-04T02:35:23.871Z,67.42
2022-09-04T02:40:35.217Z,66.84
2022-09-04T02:45:46.867Z,66.26
2022-09-04T02:51:04.431Z,66.59
2022-09-04T02:56:31.290Z,65.89
2022-09-04T03:01:40.895Z,66.11
2022-09-04T03:06:51.762Z,65.53
2022-09-04T03:11:58.847Z,65.83
2022-09-04T03:17:09.914Z,66.55
2022-09-04T03:22:19.382Z,65.78
2022-09-04T03:27:22.991Z,65.58
2022-09-04T03:32:30.590Z,65.39
2022-09-04T03:37:48.217Z,65.31
2022-09-04T03:43:07.653Z,65.21
2022-09-04T03:48:26.846Z,65.06
2022-09-04T03:53:41.056Z,65.32
2022-09-04T03:58:53.486Z,65.60
2022-09-04T04:04:21.575Z,65.88
2022-09-04T04:09:50.549Z,66.11
2022-09-04T04:15:07.863Z,66.27
2022-09-04T04:20:22.939Z,66.08
2022-09-04T04:25:40.751Z,66.03
2022-09-04T04:30:50.137Z,66.02
2022-09-04T04:36:05.305Z,66.19
2022-09-04T04:41:58.730Z,66.44
2022-09-04T04:47:15.627Z,66.46
2022-09-04T04:52:30.284Z,66.25
2022-09-04T04:57:45.406Z,66.12
2022-09-04T05:03:01.739Z,66.37
2022-09-04T05:08:17.396Z,66.93
2022-09-04T05:13:28.264Z,66.54
2022-09-04T05:18:36.366Z,66.20
2022-09-04T05:23:48.010Z,66.09
2022-09-04T05:29:00.473Z,65.40
2022-09-04T05:34:09.606Z,65.42
2022-09-04T05:39:20.763Z,65.16
2022-09-04T05:44:39.902Z,64.83
2022-09-04T05:49:52.079Z,64.35
2022-09-04T05:55:10.299Z,64.10
2022-09-04T06:00:16.954Z,63.69
2022-09-04T06:05:28.631Z,63.06
2022-09-04T06:10:47.200Z,62.28
2022-09-04T06:15:55.335Z,61.40
2022-09-04T06:21:21.108Z,60.20
2022-09-04T06:26:41.406Z,57.41
2022-09-04T06:31:58.129Z,54.20
2022-09-04T06:37:14.982Z,52.34
2022-09-04T06:42:54.814Z,44.20
2022-09-04T06:48:09.564Z,36.84
2022-09-04T06:53:21.330Z,35.72
2022-09-04T06:59:01.631Z,34.19
2022-09-04T07:04:14.189Z,32.21
2022-09-04T07:09:21.875Z,32.03
2022-09-04T07:14:59.256Z,31.15
2022-09-04T07:20:18.291Z,30.20
2022-09-04T07:25:27.509Z,29.24
2022-09-04T07:30:35.629Z,30.57
2022-09-04T07:35:44.467Z,31.57
2022-09-04T07:40:53.246Z,33.53
2022-09-04T07:46:06.195Z,34.34
2022-09-04T07:51:14.175Z,34.46
2022-09-04T07:56:26.229Z,36.78
2022-09-04T08:02:01.733Z,41.70
2022-09-04T08:07:11.474Z,47.06
2022-09-04T08:12:44.794Z,49.35
2022-09-04T08:18:12.281Z,49.98
2022-09-04T08:23:43.124Z,51.30
2022-09-04T08:29:03.768Z,50.91
2022-09-04T08:34:46.103Z,51.19
2022-09-04T08:40:02.584Z,51.04
2022-09-04T08:45:42.386Z,51.52
2022-09-04T08:51:30.508Z,50.70
2022-09-04T08:56:43.803Z,50.35
2022-09-04T09:02:18.771Z,51.95
2022-09-04T09:07:49.305Z,52.51
2022-09-04T09:13:34.680Z,52.54
2022-09-04T09:18:40.624Z,51.76
2022-09-04T09:24:13.505Z,52.52
2022-09-04T09:29:42.334Z,52.04
2022-09-04T09:35:23.664Z,51.56
2022-09-04T09:41:03.309Z,51.24
2022-09-04T09:46:49.903Z,49.87
2022-09-04T09:52:22.552Z,50.26
2022-09-04T09:58:07.089Z,49.79
2022-09-04T10:03:45.211Z,49.85
2022-09-04T10:09:16.169Z,49.68
2022-09-04T10:14:56.383Z,49.34
2022-09-04T10:20:36.150Z,48.39
2022-09-04T10:26:11.068Z,48.20
2022-09-04T10:31:44.779Z,46.77
2022-09-04T10:37:00.192Z,46.00
2022-09-04T10:42:09.764Z,45.26
2022-09-04T10:47:37.668Z,45.12
2022-09-04T10:53:06.396Z,44.99
2022-09-04T10:58:30.402Z,44.22
2022-09-04T11:03:48.632Z,43.36
2022-09-04T11:09:06.821Z,43.83
2022-09-04T11:14:54.112Z,43.35
2022-09-04T11:20:36.353Z,43.10
2022-09-04T11:26:06.770Z,42.84
2022-09-04T11:31:31.006Z,43.36
2022-09-04T11:37:18.732Z,43.60
2022-09-04T11:42:46.794Z,42.30
2022-09-04T11:48:21.403Z,43.25
2022-09-04T11:53:42.396Z,42.64
2022-09-04T11:59:06.491Z,42.90
2022-09-04T12:04:31.647Z,42.08
2022-09-04T12:09:49.180Z,41.39
2022-09-04T12:15:32.546Z,42.55
2022-09-04T12:21:01.152Z,42.13
2022-09-04T12:26:26.548Z,40.81
2022-09-04T12:31:54.657Z,39.58
2022-09-04T12:37:23.013Z,39.61
2022-09-04T12:42:29.721Z,41.47
2022-09-04T12:47:46.903Z,41.93
2022-09-04T12:53:25.628Z,40.03
2022-09-04T12:58:42.906Z,40.97
2022-09-04T13:03:59.862Z,40.27
2022-09-04T13:09:18.608Z,39.94
2022-09-04T13:14:42.060Z,39.38
2022-09-04T13:19:53.282Z,39.25
2022-09-04T13:25:08.512Z,39.46
2022-09-04T13:30:21.956Z,38.97
2022-09-04T13:35:50.032Z,38.30
2022-09-04T13:41:21.099Z,38.49
2022-09-04T13:46:30.084Z,38.92
2022-09-04T13:51:39.845Z,39.03
2022-09-04T13:56:51.203Z,38.91
2022-09-04T14:01:58.317Z,38.47
2022-09-04T14:07:07.043Z,38.70
2022-09-04T14:12:24.718Z,39.39
2022-09-04T14:17:36.800Z,38.53
2022-09-04T14:22:52.168Z,39.01
2022-09-04T14:28:04.018Z,38.33
2022-09-04T14:33:22.084Z,38.21
2022-09-04T14:38:59.374Z,37.63
2022-09-04T14:44:16.249Z,37.92
2022-09-04T14:49:24.487Z,38.17
2022-09-04T14:54:32.313Z,38.47
2022-09-04T14:59:39.051Z,38.83
2022-09-04T15:04:46.950Z,38.36
2022-09-04T15:09:52.136Z,37.60
2022-09-04T15:15:06.567Z,37.55
2022-09-04T15:20:18.971Z,37.23
2022-09-04T15:25:59.152Z,38.12
2022-09-04T15:31:15.917Z,38.24
2022-09-04T15:36:24.756Z,38.65
2022-09-04T15:41:41.073Z,38.85
2022-09-04T15:46:51.388Z,38.01
2022-09-04T15:52:03.667Z,39.13
2022-09-04T15:57:14.648Z,39.19
2022-09-04T16:02:27.486Z,38.43
2022-09-04T16:07:40.847Z,38.53
2022-09-04T16:12:53.518Z,38.79
2022-09-04T16:18:00.176Z,39.09
2022-09-04T16:23:08.449Z,38.77
2022-09-04T16:28:20.145Z,39.20
2022-09-04T16:33:28.392Z,39.25
2022-09-04T16:38:40.551Z,39.14
2022-09-04T16:44:08.871Z,39.34
2022-09-04T16:49:19.875Z,39.79
2022-09-04T16:54:30.926Z,40.25
2022-09-04T16:59:42.205Z,40.66
2022-09-04T17:04:52.344Z,40.84
2022-09-04T17:10:02.801Z,40.94
2022-09-04T17:15:17.421Z,41.23
2022-09-04T17:21:48.048Z,41.71
2022-09-04T17:29:00.943Z,41.58
2022-09-04T17:31:29.914Z,41.76
2022-09-04T17:40:49.875Z,42.87
2022-09-04T17:42:10.804Z,43.29
2022-09-04T17:47:26.691Z,43.56
2022-09-04T17:52:32.603Z,43.48
2022-09-04T17:57:52.065Z,43.79
2022-09-04T18:03:02.529Z,44.08
2022-09-04T18:15:53.689Z,45.16
2022-09-04T18:22:06.439Z,45.09
2022-09-04T18:28:06.509Z,45.87
2022-09-04T18:53:38.329Z,46.88
2022-09-04T18:59:40.263Z,46.86
2022-09-04T19:05:03.078Z,47.00
2022-09-04T19:11:29.549Z,47.16
2022-09-04T20:43:21.460Z,49.24
2022-09-04T20:52:58.596Z,49.42
2022-09-04T20:54:12.225Z,49.61
2022-09-04T21:03:13.286Z,49.71
2022-09-04T21:04:55.697Z,49.87
2022-09-04T21:10:10.320Z,50.09
2022-09-04T21:15:27.524Z,50.05
2022-09-04T21:20:59.459Z,50.43
2022-09-04T21:26:15.781Z,50.91
2022-09-04T21:31:44.598Z,51.42
2022-09-04T21:36:54.618Z,51.80
2022-09-04T21:42:16.566Z,51.99
2022-09-04T21:47:56.070Z,52.48
2022-09-04T21:53:35.003Z,52.66
2022-09-04T22:02:41.705Z,53.14
2022-09-04T22:04:44.723Z,53.70
2022-09-04T22:13:33.048Z,53.67
2022-09-04T22:15:38.292Z,54.15
2022-09-04T22:20:53.982Z,54.51
2022-09-04T22:26:23.879Z,54.56
2022-09-04T22:31:50.606Z,54.52
2022-09-04T22:37:23.863Z,54.70
2022-09-04T22:43:04.705Z,54.79
2022-09-04T22:48:28.256Z,54.82
2022-09-04T22:54:07.255Z,55.16
2022-09-04T22:59:27.313Z,54.97
2022-09-04T23:05:05.231Z,54.96
2022-09-04T23:13:44.792Z,54.99
2022-09-04T23:16:05.871Z,54.97
2022-09-04T23:26:37.041Z,54.72
2022-09-04T23:27:34.088Z,54.42
2022-09-04T23:33:32.093Z,54.62
2022-09-04T23:39:16.843Z,54.57
2022-09-04T23:45:03.646Z,54.93
2022-09-04T23:50:15.809Z,55.13
2022-09-04T23:55:45.057Z,55.57
